Time;durP1;ratioP1;P1;durP2;ratioP2;P2;SDS_P1;SDS_P2;PMS_P1;PMS_P2;Temp;Humidity;BMP_temperature;BMP_pressure;BME280_temperature;BME280_humidity;BME280_pressure;Samples;Min_cycle;Max_cycle;Signal;HPM_P1;HPM_P2
2022/07/28 00:05:13;;;;;;;16.50;15.80;;;;;;;17.59;100.00;101834.52;2013569;71;30987;-78
2022/07/28 00:10:57;;;;;;;17.83;17.13;;;;;;;17.33;100.00;101820.63;2017154;71;31494;-79
2022/07/28 00:16:42;;;;;;;19.60;18.63;;;;;;;17.29;100.00;101830.80;2008382;71;30965;-77
2022/07/28 00:22:26;;;;;;;20.80;19.80;;;;;;;17.24;100.00;101817.68;2017168;71;32980;-79
2022/07/28 00:28:10;;;;;;;20.57;19.57;;;;;;;17.44;100.00;101813.70;1998878;71;31479;-78
2022/07/28 00:33:54;;;;;;;19.97;19.03;;;;;;;17.40;100.00;101816.03;2014937;71;32972;-78
2022/07/28 00:39:42;;;;;;;19.67;18.60;;;;;;;17.48;100.00;101808.30;2013347;71;31012;-77
2022/07/28 00:45:26;;;;;;;22.87;21.87;;;;;;;17.23;100.00;101807.61;1997448;71;30900;-79
2022/07/28 00:51:11;;;;;;;24.67;23.50;;;;;;;17.17;100.00;101806.02;2006081;71;30896;-78
2022/07/28 00:56:55;;;;;;;24.80;23.53;;;;;;;17.27;100.00;101800.80;2017174;71;31435;-78
2022/07/28 01:02:41;;;;;;;26.23;24.87;;;;;;;17.17;100.00;101799.56;1979286;72;33046;-77
2022/07/28 01:08:29;;;;;;;27.57;26.20;;;;;;;17.10;100.00;101798.56;2009859;71;31413;-79
2022/07/28 01:14:22;;;;;;;30.27;28.60;;;;;;;17.12;100.00;101789.81;2001181;71;31389;-77
2022/07/28 01:20:13;;;;;;;33.63;31.93;;;;;;;17.15;100.00;101790.06;2004225;71;31068;-78
2022/07/28 01:26:06;;;;;;;33.70;31.90;;;;;;;17.26;100.00;101790.70;2015302;71;30957;-77
2022/07/28 01:28:40;;;;;;;35.20;33.40;;;;;;;17.25;100.00;101790.44;1971373;72;26195;-77
2022/07/28 01:34:30;;;;;;;38.27;36.47;;;;;;;17.07;100.00;101784.31;2000704;71;31504;-78
2022/07/28 01:40:20;;;;;;;39.67;37.60;;;;;;;17.04;100.00;101786.30;2009525;71;30995;-78
2022/07/28 01:46:08;;;;;;;43.53;41.07;;;;;;;17.03;100.00;101776.24;1995497;71;30874;-76
2022/07/28 01:51:55;;;;;;;47.63;45.17;;;;;;;16.99;100.00;101773.19;2016995;71;30956;-77
2022/07/28 01:57:43;;;;;;;47.83;45.37;;;;;;;17.10;100.00;101765.44;2018640;71;30896;-79
2022/07/28 02:03:28;;;;;;;47.90;45.20;;;;;;;17.13;100.00;101762.84;2015046;71;31438;-78
2022/07/28 02:09:15;;;;;;;50.97;48.30;;;;;;;17.02;100.00;101765.58;2005868;71;33488;-79
2022/07/28 02:15:02;;;;;;;50.70;48.20;;;;;;;17.17;100.00;101763.06;2016895;71;31419;-77
2022/07/28 02:20:48;;;;;;;53.13;50.47;;;;;;;16.98;100.00;101756.67;2002696;71;30863;-78
2022/07/28 02:26:36;;;;;;;51.80;49.20;;;;;;;17.12;100.00;101751.34;1997401;71;30831;-78
2022/07/28 02:32:26;;;;;;;51.03;48.43;;;;;;;17.15;100.00;101745.14;2009950;71;30859;-77
2022/07/28 02:35:01;;;;;;;53.50;50.90;;;;;;;17.00;100.00;101745.95;1963442;72;24310;-76
2022/07/28 02:40:52;;;;;;;54.90;52.20;;;;;;;16.99;100.00;101746.52;2002540;71;31296;-76
2022/07/28 02:46:43;;;;;;;55.63;52.83;;;;;;;16.95;100.00;101745.47;1991272;71;30856;-77
2022/07/28 02:52:30;;;;;;;61.87;58.53;;;;;;;16.95;100.00;101743.23;2014839;71;31014;-77
2022/07/28 02:58:17;;;;;;;59.47;56.57;;;;;;;17.03;100.00;101736.34;1994829;71;33412;-77
2022/07/28 03:04:03;;;;;;;58.30;55.50;;;;;;;16.99;100.00;101736.69;2009752;71;32862;-77
2022/07/28 03:09:49;;;;;;;60.50;57.57;;;;;;;17.06;100.00;101730.70;2018592;71;30914;-77
2022/07/28 03:15:33;;;;;;;63.33;59.93;;;;;;;17.06;100.00;101724.52;1997239;71;30843;-78
2022/07/28 03:21:19;;;;;;;62.77;59.63;;;;;;;17.19;100.00;101729.91;1995059;71;32942;-78
2022/07/28 03:27:10;;;;;;;63.70;60.53;;;;;;;17.23;100.00;101728.15;1991706;71;32928;-79
2022/07/28 03:32:58;;;;;;;66.37;63.07;;;;;;;17.15;100.00;101724.66;2000721;71;30858;-72
2022/07/28 03:38:46;;;;;;;67.03;63.63;;;;;;;17.17;100.00;101723.75;2009383;71;32842;-71
2022/07/28 03:44:32;;;;;;;70.63;66.67;;;;;;;17.16;100.00;101727.12;2009490;71;30939;-70
2022/07/28 03:50:18;;;;;;;68.40;64.80;;;;;;;17.12;100.00;101732.27;1995369;71;30870;-70
2022/07/28 03:56:02;;;;;;;67.30;63.97;;;;;;;17.21;100.00;101722.00;2011238;71;30985;-72
2022/07/28 04:01:46;;;;;;;67.40;63.90;;;;;;;17.13;100.00;101730.56;1949464;71;39738;-71
2022/07/28 04:07:29;;;;;;;68.73;65.10;;;;;;;17.13;100.00;101722.14;1997099;71;31344;-70
2022/07/28 04:13:14;;;;;;;67.67;64.07;;;;;;;17.17;100.00;101718.98;2013828;71;31451;-70
2022/07/28 04:18:59;;;;;;;67.53;63.70;;;;;;;17.12;100.00;101713.45;2011714;71;30825;-72
2022/07/28 04:24:43;;;;;;;65.67;61.90;;;;;;;17.10;100.00;101715.75;2015123;71;32943;-72
2022/07/28 04:30:27;;;;;;;70.93;66.93;;;;;;;17.13;100.00;101716.52;2005844;71;31024;-72
2022/07/28 04:36:11;;;;;;;69.97;65.97;;;;;;;17.24;100.00;101707.36;2016774;71;33582;-70
2022/07/28 04:41:55;;;;;;;67.03;62.93;;;;;;;17.13;100.00;101719.33;2006443;71;30873;-72
2022/07/28 04:47:40;;;;;;;69.70;65.83;;;;;;;17.14;100.00;101717.36;2009645;71;30937;-72
2022/07/28 04:53:27;;;;;;;68.27;64.50;;;;;;;17.12;100.00;101714.02;2009548;71;33455;-70
2022/07/28 04:59:11;;;;;;;68.47;64.73;;;;;;;17.13;100.00;101710.91;2016817;71;31316;-72
2022/07/28 05:04:55;;;;;;;70.13;66.33;;;;;;;17.19;100.00;101714.47;2010636;70;30963;-72
2022/07/28 05:10:41;;;;;;;68.43;64.63;;;;;;;17.22;100.00;101706.25;2000217;71;32995;-72
2022/07/28 05:16:25;;;;;;;66.53;62.93;;;;;;;17.25;100.00;101711.23;2004042;71;33039;-72
2022/07/28 05:22:10;;;;;;;68.37;64.47;;;;;;;17.38;100.00;101703.98;2003981;71;33361;-71
2022/07/28 05:27:55;;;;;;;68.33;64.37;;;;;;;17.43;100.00;101712.31;2006280;71;30921;-72
2022/07/28 05:33:41;;;;;;;68.83;64.83;;;;;;;17.53;100.00;101715.50;2000597;71;30893;-72
2022/07/28 05:39:26;;;;;;;66.57;62.47;;;;;;;17.65;100.00;101716.69;2016809;71;31489;-72
2022/07/28 05:45:12;;;;;;;66.90;63.00;;;;;;;17.69;100.00;101712.67;2016614;71;30930;-71
2022/07/28 05:50:57;;;;;;;65.83;61.93;;;;;;;17.67;100.00;101714.38;2015115;71;30925;-72
2022/07/28 05:56:42;;;;;;;64.03;60.10;;;;;;;17.81;100.00;101712.98;2009487;71;30921;-71
2022/07/28 06:02:33;;;;;;;64.13;60.27;;;;;;;17.86;100.00;101704.45;2024589;71;30893;-72
2022/07/28 06:08:17;;;;;;;66.77;62.80;;;;;;;17.92;100.00;101707.42;2000190;71;30875;-70
2022/07/28 06:14:02;;;;;;;69.57;65.57;;;;;;;17.95;100.00;101703.97;2005787;71;31479;-72
2022/07/28 06:19:46;;;;;;;67.47;63.70;;;;;;;17.96;100.00;101706.21;2004569;71;30964;-70
2022/07/28 06:25:31;;;;;;;69.43;65.43;;;;;;;18.09;100.00;101709.58;2018617;71;31470;-72
2022/07/28 06:31:16;;;;;;;70.00;65.80;;;;;;;18.12;100.00;101707.54;2000431;71;30957;-70
2022/07/28 06:37:00;;;;;;;62.63;59.03;;;;;;;18.31;100.00;101706.83;2011905;71;31353;-71
2022/07/28 06:42:46;;;;;;;59.50;56.50;;;;;;;18.33;100.00;101703.11;2015056;71;31452;-71
2022/07/28 06:48:30;;;;;;;57.17;53.97;;;;;;;18.47;100.00;101701.67;1998585;71;33066;-70
2022/07/28 06:54:15;;;;;;;54.40;51.60;;;;;;;18.54;100.00;101697.86;2006410;71;31317;-70
2022/07/28 06:59:59;;;;;;;53.77;50.97;;;;;;;18.63;100.00;101698.77;2011450;71;31455;-71
2022/07/28 07:05:44;;;;;;;48.60;45.77;;;;;;;18.81;100.00;101699.73;1998634;71;31418;-70
2022/07/28 07:11:30;;;;;;;51.00;48.10;;;;;;;18.91;100.00;101696.67;2011589;71;30905;-72
2022/07/28 07:17:14;;;;;;;43.40;40.87;;;;;;;19.08;100.00;101693.97;1991576;71;30893;-70
2022/07/28 07:22:58;;;;;;;41.33;38.90;;;;;;;19.14;100.00;101698.30;2004262;71;31546;-72
2022/07/28 07:28:43;;;;;;;37.33;35.17;;;;;;;19.36;100.00;101701.08;2015038;71;30907;-71
2022/07/28 07:34:27;;;;;;;32.93;31.13;;;;;;;19.54;100.00;101698.63;2009792;71;31443;-68
2022/07/28 07:40:11;;;;;;;28.90;26.80;;;;;;;19.63;100.00;101693.61;2015143;71;30914;-70
2022/07/28 07:45:55;;;;;;;29.50;27.90;;;;;;;19.89;100.00;101693.12;1991813;71;31355;-70
2022/07/28 07:51:40;;;;;;;28.63;26.90;;;;;;;20.12;100.00;101679.12;2016860;71;31534;-69
2022/07/28 07:57:24;;;;;;;23.93;22.43;;;;;;;20.70;100.00;101681.53;2013616;71;32853;-70
2022/07/28 08:03:08;;;;;;;23.73;22.53;;;;;;;21.03;100.00;101687.45;2014926;71;33357;-70
2022/07/28 08:08:52;;;;;;;21.90;20.60;;;;;;;21.18;100.00;101686.93;2011821;70;31069;-71
2022/07/28 08:14:38;;;;;;;19.77;18.67;;;;;;;21.52;100.00;101684.56;2016984;71;30942;-71
2022/07/28 08:20:22;;;;;;;17.83;16.93;;;;;;;21.50;100.00;101681.27;2000755;71;31380;-72
2022/07/28 08:26:07;;;;;;;15.70;14.87;;;;;;;21.68;100.00;101690.50;2016968;71;31405;-71
2022/07/28 08:31:51;;;;;;;14.30;13.40;;;;;;;21.82;100.00;101692.52;1991851;71;31418;-71
2022/07/28 08:37:39;;;;;;;13.37;12.47;;;;;;;21.99;100.00;101690.21;1998636;71;31481;-70
2022/07/28 08:43:31;;;;;;;11.85;11.15;;;;;;;22.07;100.00;101692.98;2016688;71;31040;-70
2022/07/28 08:49:18;;;;;;;11.60;11.00;;;;;;;22.24;100.00;101682.97;2008224;71;30827;-70
2022/07/28 08:55:06;;;;;;;11.80;11.10;;;;;;;22.33;100.00;101684.31;2016679;71;31495;-71
2022/07/28 09:00:52;;;;;;;12.03;11.18;;;;;;;22.48;100.00;101686.52;2013216;71;31406;-70
2022/07/28 09:06:40;;;;;;;11.65;10.85;;;;;;;22.69;100.00;101675.20;2014684;71;31464;-70
2022/07/28 09:12:23;;;;;;;10.85;10.25;;;;;;;23.23;100.00;101673.74;2011818;71;30933;-69
2022/07/28 09:18:08;;;;;;;11.50;10.70;;;;;;;23.57;100.00;101667.09;2008040;71;30830;-67
2022/07/28 09:23:53;;;;;;;11.55;10.85;;;;;;;23.28;100.00;101674.91;2014813;71;30972;-69
2022/07/28 09:29:41;;;;;;;11.10;10.58;;;;;;;22.88;100.00;101670.45;1991533;71;30885;-69
2022/07/28 09:35:29;;;;;;;11.08;10.48;;;;;;;23.01;100.00;101666.48;2011229;71;31037;-69
2022/07/28 09:41:17;;;;;;;11.48;10.78;;;;;;;23.14;100.00;101666.17;1995038;71;30817;-69
2022/07/28 09:47:03;;;;;;;11.75;10.88;;;;;;;23.08;100.00;101670.39;2009313;71;30883;-69
2022/07/28 09:52:57;;;;;;;11.25;10.65;;;;;;;23.27;100.00;101666.19;2016509;71;30944;-69
2022/07/28 09:58:42;;;;;;;11.20;10.50;;;;;;;23.27;100.00;101654.27;1996885;71;30926;-69
2022/07/28 10:04:35;;;;;;;11.33;10.75;;;;;;;23.28;100.00;101660.73;2013256;71;30880;-71
2022/07/28 10:10:22;;;;;;;11.50;10.72;;;;;;;23.44;100.00;101648.41;2011861;71;30885;-69
2022/07/28 10:16:11;;;;;;;11.68;10.78;;;;;;;23.14;100.00;101648.33;2005546;71;31273;-69
2022/07/28 10:21:57;;;;;;;12.00;11.30;;;;;;;22.83;100.00;101653.08;2011335;71;30944;-69
2022/07/28 10:27:44;;;;;;;12.00;11.20;;;;;;;23.23;100.00;101655.31;2016793;71;31456;-70
2022/07/28 10:33:32;;;;;;;11.68;10.98;;;;;;;23.44;100.00;101649.00;2008244;71;31454;-70
2022/07/28 10:39:20;;;;;;;12.05;11.35;;;;;;;23.57;100.00;101644.99;2002496;71;31338;-69
2022/07/28 10:45:08;;;;;;;11.68;11.00;;;;;;;23.53;100.00;101642.01;1996859;71;30903;-68
2022/07/28 10:50:53;;;;;;;12.35;11.75;;;;;;;23.58;100.00;101636.11;2012844;71;31391;-70
2022/07/28 10:56:50;;;;;;;12.05;11.38;;;;;;;23.37;100.00;101641.02;1994613;71;31101;-70
2022/07/28 11:03:01;;;;;;;11.88;11.18;;;;;;;23.40;100.00;101634.67;1966540;72;31522;-68
2022/07/28 11:08:48;;;;;;;12.00;11.40;;;;;;;23.66;100.00;101632.91;2009282;71;30989;-69
2022/07/28 11:11:38;;;;;;;11.57;10.98;;;;;;;23.82;100.00;101637.29;1971156;72;24159;-69
2022/07/28 11:17:47;;;;;;;11.73;11.12;;;;;;;23.89;100.00;101634.09;2003910;71;31415;-68
2022/07/28 11:27:16;;;;;;;11.75;11.05;;;;;;;24.14;100.00;101638.29;2011427;71;30882;-69
2022/07/28 11:33:04;;;;;;;11.30;10.65;;;;;;;23.78;100.00;101632.09;2005536;71;30881;-68
2022/07/28 11:39:23;;;;;;;11.38;10.88;;;;;;;23.95;100.00;101634.09;2000623;71;30897;-68
2022/07/28 11:45:25;;;;;;;11.80;11.00;;;;;;;23.59;100.00;101629.84;2004597;71;31395;-70
2022/07/28 11:51:30;;;;;;;11.95;11.28;;;;;;;23.97;100.00;101616.69;2003986;71;31019;-68
2022/07/28 11:57:14;;;;;;;11.80;11.03;;;;;;;23.71;100.00;101617.07;2004222;71;30896;-69
2022/07/28 12:03:04;;;;;;;11.90;11.28;;;;;;;23.96;100.00;101612.22;1969797;72;31064;-69
2022/07/28 12:08:52;;;;;;;10.90;10.30;;;;;;;23.94;100.00;101610.31;2000269;71;31401;-68
2022/07/28 12:14:43;;;;;;;11.30;10.60;;;;;;;24.21;100.00;101597.39;2018530;71;30864;-69
2022/07/28 12:20:31;;;;;;;11.33;10.82;;;;;;;24.48;100.00;101604.50;2013209;71;30982;-69
2022/07/28 12:26:34;;;;;;;11.68;11.10;;;;;;;24.44;100.00;101597.06;2002420;71;30990;-69
2022/07/28 12:32:19;;;;;;;11.38;10.88;;;;;;;24.19;100.00;101604.84;1998740;71;30883;-69
2022/07/28 12:38:03;;;;;;;11.85;11.05;;;;;;;24.24;100.00;101597.50;1934234;73;31652;-68
2022/07/28 12:43:52;;;;;;;11.65;11.15;;;;;;;24.42;100.00;101586.08;2015074;71;31362;-69
2022/07/28 12:49:39;;;;;;;11.80;11.12;;;;;;;24.40;100.00;101582.76;2006029;71;30826;-70
2022/07/28 12:55:35;;;;;;;11.73;11.05;;;;;;;24.36;100.00;101583.84;1997056;71;30907;-69
2022/07/28 13:01:19;;;;;;;11.75;11.15;;;;;;;24.34;100.00;101587.06;1996796;71;30911;-69
2022/07/28 13:07:08;;;;;;;11.55;10.95;;;;;;;24.24;100.00;101587.56;1998779;71;30814;-68
2022/07/28 13:13:02;;;;;;;11.38;10.88;;;;;;;24.15;100.00;101582.62;2011394;71;31396;-68
2022/07/28 13:18:50;;;;;;;11.60;10.90;;;;;;;24.11;100.00;101573.14;1994859;71;30973;-69
2022/07/28 13:24:53;;;;;;;11.35;10.85;;;;;;;24.42;100.00;101572.47;2016626;71;30908;-69
2022/07/28 13:30:37;;;;;;;11.53;10.93;;;;;;;24.51;100.00;101566.04;1991436;71;30844;-70
2022/07/28 13:36:21;;;;;;;12.15;11.55;;;;;;;24.71;100.00;101570.66;1995166;71;31322;-67
2022/07/28 13:42:06;;;;;;;11.60;11.00;;;;;;;24.76;100.00;101572.41;2002154;71;30959;-67
2022/07/28 13:47:51;;;;;;;12.00;11.05;;;;;;;24.87;100.00;101574.97;2009240;71;30899;-68
2022/07/28 13:53:35;;;;;;;11.60;11.00;;;;;;;24.84;100.00;101567.98;2012931;71;30954;-68
2022/07/28 13:59:20;;;;;;;12.23;11.30;;;;;;;25.11;100.00;101571.16;2016570;71;30890;-70
2022/07/28 14:05:05;;;;;;;11.60;10.90;;;;;;;25.18;100.00;101560.78;2007621;71;30978;-70
2022/07/28 14:10:52;;;;;;;13.03;12.33;;;;;;;25.15;100.00;101562.95;2000168;70;32327;-70
2022/07/28 14:16:36;;;;;;;17.17;16.07;;;;;;;25.05;100.00;101570.59;2016881;71;32459;-70
2022/07/28 14:22:21;;;;;;;12.40;11.78;;;;;;;25.24;100.00;101568.45;2007796;71;30986;-68
2022/07/28 14:28:06;;;;;;;11.33;10.43;;;;;;;25.18;100.00;101570.73;2014806;71;32040;-68
2022/07/28 14:33:50;;;;;;;10.90;10.30;;;;;;;24.80;100.00;101579.84;2006347;71;30842;-69
2022/07/28 14:39:34;;;;;;;11.75;11.05;;;;;;;24.39;100.00;101581.69;2014666;71;31014;-69
2022/07/28 14:45:19;;;;;;;11.75;11.15;;;;;;;24.40;100.00;101571.40;2012948;71;30894;-68
2022/07/28 14:51:04;;;;;;;12.03;11.18;;;;;;;24.73;100.00;101568.27;2013443;71;30862;-69
2022/07/28 14:56:49;;;;;;;11.60;10.98;;;;;;;24.72;100.00;101569.48;2016474;71;30902;-70
2022/07/28 15:02:33;;;;;;;10.88;10.08;;;;;;;24.73;100.00;101568.27;1974100;71;31148;-70
2022/07/28 15:08:18;;;;;;;11.40;10.48;;;;;;;24.46;100.00;101563.45;2016922;71;31455;-71
2022/07/28 15:14:03;;;;;;;10.95;10.35;;;;;;;24.25;100.00;101566.50;2008119;71;31295;-72
2022/07/28 15:19:48;;;;;;;10.88;10.18;;;;;;;24.27;100.00;101567.55;2018608;71;31352;-72
2022/07/28 15:25:32;;;;;;;11.00;10.38;;;;;;;24.26;100.00;101565.91;1995132;71;30955;-72
2022/07/28 15:31:18;;;;;;;11.25;10.55;;;;;;;24.32;100.00;101569.55;2009748;71;31380;-70
2022/07/28 15:37:02;;;;;;;11.30;10.50;;;;;;;24.32;100.00;101563.03;2016826;71;30908;-71
2022/07/28 15:42:46;;;;;;;11.53;10.72;;;;;;;24.29;100.00;101563.17;2007585;71;32441;-70
2022/07/28 15:48:31;;;;;;;11.63;10.85;;;;;;;24.53;100.00;101557.13;2000863;71;31318;-72
2022/07/28 15:54:15;;;;;;;11.83;11.20;;;;;;;24.31;100.00;101569.30;2002771;71;32358;-69
2022/07/28 15:59:59;;;;;;;11.12;10.43;;;;;;;24.32;100.00;101577.23;1994751;71;31079;-71
2022/07/28 16:05:48;;;;;;;10.68;10.18;;;;;;;24.00;100.00;101575.63;2009543;70;33396;-72
2022/07/28 16:11:31;;;;;;;11.18;10.18;;;;;;;24.04;100.00;101572.34;2013177;71;31491;-71
2022/07/28 16:17:17;;;;;;;11.33;10.48;;;;;;;24.09;100.00;101584.62;2006471;71;30875;-72
2022/07/28 16:23:02;;;;;;;11.45;10.58;;;;;;;23.92;100.00;101585.12;1995451;71;31411;-71
2022/07/28 16:28:47;;;;;;;11.50;10.90;;;;;;;23.88;100.00;101585.60;2013232;71;31464;-73
2022/07/28 16:34:34;;;;;;;10.80;10.30;;;;;;;23.86;100.00;101591.41;2018762;70;31534;-72
2022/07/28 16:40:19;;;;;;;13.58;11.12;;;;;;;23.81;100.00;101586.80;2006376;71;31340;-72
2022/07/28 16:46:03;;;;;;;11.45;10.70;;;;;;;23.68;100.00;101592.27;2016798;71;31431;-71
2022/07/28 16:51:47;;;;;;;9.98;9.03;;;;;;;23.56;100.00;101588.84;2011735;71;30863;-73
2022/07/28 16:57:32;;;;;;;10.65;9.95;;;;;;;23.41;100.00;101600.86;2013534;71;30897;-72
2022/07/28 17:03:16;;;;;;;11.00;10.40;;;;;;;23.63;100.00;101608.09;2007979;71;31348;-72
2022/07/28 17:09:01;;;;;;;11.03;10.43;;;;;;;23.70;100.00;101605.52;2004317;71;31424;-71
2022/07/28 17:14:45;;;;;;;10.78;10.03;;;;;;;23.20;100.00;101607.80;2010036;71;31322;-72
2022/07/28 17:20:29;;;;;;;10.45;9.85;;;;;;;22.86;100.00;101615.54;2014668;71;30882;-70
2022/07/28 17:26:13;;;;;;;10.63;9.93;;;;;;;22.92;100.00;101604.81;2004321;71;30819;-71
2022/07/28 17:31:58;;;;;;;10.60;9.98;;;;;;;22.76;100.00;101616.58;2003779;71;31426;-71
2022/07/28 17:37:42;;;;;;;11.73;10.93;;;;;;;22.68;100.00;101613.44;2016657;71;31395;-71
2022/07/28 17:43:29;;;;;;;12.05;11.45;;;;;;;22.70;100.00;101618.80;2003958;71;30902;-71
2022/07/28 17:49:14;;;;;;;12.13;11.60;;;;;;;22.72;100.00;101617.84;1998538;71;30988;-70
2022/07/28 18:01:02;;;;;;;10.80;10.20;;;;;;;22.71;100.00;101626.70;1998198;71;30868;-70
2022/07/28 18:06:47;;;;;;;10.55;9.95;;;;;;;22.83;100.00;101623.91;2013193;71;30894;-73
2022/07/28 18:12:31;;;;;;;11.30;10.58;;;;;;;22.94;100.00;101629.36;2007818;71;31543;-72
2022/07/28 18:18:15;;;;;;;10.63;10.10;;;;;;;22.84;100.00;101628.41;1994794;71;30954;-72
2022/07/28 18:24:00;;;;;;;10.70;10.10;;;;;;;22.76;100.00;101630.16;2017062;71;31592;-70
2022/07/28 18:29:44;;;;;;;10.90;10.23;;;;;;;22.66;100.00;101637.63;2016776;71;31498;-72
2022/07/28 18:35:30;;;;;;;10.90;10.30;;;;;;;22.64;100.00;101632.89;2004475;71;31370;-70
2022/07/28 18:41:14;;;;;;;11.60;10.78;;;;;;;22.27;100.00;101646.64;2009265;71;30918;-72
2022/07/28 18:47:00;;;;;;;11.83;10.90;;;;;;;22.00;100.00;101650.82;1995131;71;30910;-72
2022/07/28 18:52:44;;;;;;;11.05;10.38;;;;;;;21.93;100.00;101657.62;2006304;71;31635;-73
2022/07/28 18:58:28;;;;;;;11.57;10.88;;;;;;;21.86;100.00;101657.30;2016775;71;31486;-74
2022/07/28 19:04:13;;;;;;;11.40;10.48;;;;;;;21.75;100.00;101668.17;2000722;71;30870;-72
2022/07/28 19:09:58;;;;;;;10.78;10.15;;;;;;;22.04;100.00;101661.69;2011301;71;31379;-73
2022/07/28 19:15:43;;;;;;;11.30;10.50;;;;;;;21.60;100.00;101666.77;1991593;71;31020;-73
2022/07/28 19:21:28;;;;;;;11.60;10.85;;;;;;;21.52;100.00;101667.60;1991546;71;30964;-73
2022/07/28 19:27:12;;;;;;;10.67;9.93;;;;;;;21.47;100.00;101669.81;2014828;71;30892;-73
2022/07/28 19:32:56;;;;;;;10.43;9.93;;;;;;;21.41;100.00;101673.98;2006042;71;31434;-72
2022/07/28 19:38:41;;;;;;;10.93;10.10;;;;;;;21.28;100.00;101676.69;2011560;71;31386;-75
2022/07/28 19:44:28;;;;;;;11.20;10.50;;;;;;;21.23;100.00;101685.92;2018435;71;30927;-74
2022/07/28 19:50:13;;;;;;;11.27;10.63;;;;;;;21.14;100.00;101695.00;2000256;71;30998;-74
2022/07/28 19:55:57;;;;;;;10.83;10.13;;;;;;;21.08;100.00;101694.34;2003932;71;30965;-74
2022/07/28 20:01:42;;;;;;;10.88;10.35;;;;;;;21.03;100.00;101696.50;1988752;71;30911;-71
2022/07/28 20:07:26;;;;;;;11.80;10.90;;;;;;;20.90;100.00;101701.17;2011739;71;30876;-72
2022/07/28 20:13:10;;;;;;;11.40;10.80;;;;;;;20.87;100.00;101703.27;2015080;71;31396;-71
2022/07/28 20:18:56;;;;;;;11.33;10.70;;;;;;;20.89;100.00;101704.58;2014926;71;30990;-71
2022/07/28 20:24:40;;;;;;;11.53;10.73;;;;;;;20.83;100.00;101707.34;2014991;71;30938;-71
2022/07/28 20:30:26;;;;;;;11.00;10.40;;;;;;;20.67;100.00;101711.81;2013110;71;30953;-72
2022/07/28 20:36:11;;;;;;;11.53;10.73;;;;;;;20.54;100.00;101719.06;2016872;71;31394;-72
2022/07/28 20:41:55;;;;;;;11.87;10.97;;;;;;;20.51;100.00;101717.72;2008047;71;30924;-68
2022/07/28 20:47:40;;;;;;;11.70;11.10;;;;;;;20.45;100.00;101726.92;2018603;71;31464;-70
2022/07/28 20:53:25;;;;;;;11.23;10.43;;;;;;;20.43;100.00;101732.66;2006112;71;30875;-71
2022/07/28 20:59:12;;;;;;;10.67;10.07;;;;;;;20.38;100.00;101742.11;1998803;71;31444;-71
2022/07/28 21:04:56;;;;;;;10.97;10.30;;;;;;;20.35;100.00;101737.71;2000674;71;30884;-69
2022/07/28 21:10:40;;;;;;;11.00;10.40;;;;;;;20.18;100.00;101742.71;2009619;71;30932;-73
2022/07/28 21:16:24;;;;;;;10.30;9.80;;;;;;;20.18;100.00;101749.77;2016783;71;30950;-70
2022/07/28 21:22:11;;;;;;;11.00;10.30;;;;;;;20.18;100.00;101754.00;2004089;71;30919;-71
2022/07/28 21:33:57;;;;;;;10.90;10.30;;;;;;;20.15;100.00;101744.75;2016497;71;30885;-70
2022/07/28 21:39:43;;;;;;;11.33;10.70;;;;;;;20.00;100.00;101751.70;2014775;71;30972;-70
2022/07/28 21:45:27;;;;;;;10.77;10.17;;;;;;;19.98;100.00;101746.16;1991431;71;30879;-69
2022/07/28 21:51:15;;;;;;;10.77;10.17;;;;;;;19.95;100.00;101749.60;2014862;71;33383;-69
2022/07/28 21:57:09;;;;;;;11.00;10.40;;;;;;;19.79;100.00;101759.66;2000844;71;31415;-70
2022/07/28 22:02:49;;;;;;;11.23;10.60;;;;;;;19.82;100.00;101766.89;1955337;72;31031;-69
2022/07/28 22:08:34;;;;;;;11.17;10.47;;;;;;;19.73;100.00;101772.23;2016631;71;30861;-69
2022/07/28 22:14:19;;;;;;;11.20;10.53;;;;;;;19.71;100.00;101771.73;2000935;71;30930;-71
2022/07/28 22:20:03;;;;;;;11.07;10.47;;;;;;;19.59;100.00;101777.99;2016642;71;31446;-69
2022/07/28 22:25:47;;;;;;;10.93;10.23;;;;;;;19.53;100.00;101780.68;2013320;71;33416;-69
2022/07/28 22:31:32;;;;;;;10.57;10.07;;;;;;;19.55;100.00;101782.00;2016891;71;30928;-69
2022/07/28 22:37:19;;;;;;;11.00;10.40;;;;;;;19.35;100.00;101791.55;2011065;71;30980;-69
2022/07/28 22:43:03;;;;;;;11.90;11.20;;;;;;;19.34;100.00;101789.30;2014902;71;30995;-70
2022/07/28 22:48:48;;;;;;;11.53;10.93;;;;;;;19.40;100.00;101791.42;2014834;71;31362;-69
2022/07/28 22:54:32;;;;;;;11.73;11.13;;;;;;;19.26;100.00;101788.67;2005711;71;30936;-71
2022/07/28 23:00:17;;;;;;;11.43;10.83;;;;;;;19.28;100.00;101790.61;1997047;71;30861;-70
2022/07/28 23:06:02;;;;;;;11.23;10.60;;;;;;;19.45;100.00;101787.94;2010020;71;30907;-70
2022/07/28 23:11:46;;;;;;;11.47;10.90;;;;;;;19.41;100.00;101781.83;2000417;71;30937;-69
2022/07/28 23:17:30;;;;;;;11.67;10.90;;;;;;;19.38;100.00;101789.52;2014957;71;30930;-70
2022/07/28 23:23:17;;;;;;;12.27;11.27;;;;;;;19.26;100.00;101786.44;2005725;71;30927;-69
2022/07/28 23:29:01;;;;;;;11.30;10.70;;;;;;;19.22;100.00;101784.00;2012913;71;30922;-70
2022/07/28 23:34:45;;;;;;;11.40;10.87;;;;;;;19.14;100.00;101786.19;2002122;71;30922;-70
2022/07/28 23:40:30;;;;;;;11.60;11.00;;;;;;;19.23;100.00;101776.65;2003819;71;30881;-69
2022/07/28 23:46:14;;;;;;;11.97;11.30;;;;;;;19.13;100.00;101782.53;2016704;71;30931;-69
2022/07/28 23:51:58;;;;;;;12.67;11.90;;;;;;;19.16;100.00;101786.71;2014974;71;31442;-71
2022/07/28 23:57:43;;;;;;;13.13;12.43;;;;;;;19.04;100.00;101778.81;2000214;71;30957;-71
